createdAt,value
2024-01-28T17:45:28.232Z,5.50
2024-01-28T17:49:46.558Z,5.07
2024-01-28T17:54:04.507Z,5.57
2024-01-28T17:58:22.243Z,5.40
2024-01-28T18:02:41.974Z,5.93
2024-01-28T18:07:01.528Z,5.05
2024-01-28T18:11:21.142Z,5.93
2024-01-28T18:15:40.662Z,5.70
2024-01-28T18:20:01.071Z,5.50
2024-01-28T18:24:22.984Z,5.60
2024-01-28T18:28:41.213Z,5.30
2024-01-28T18:33:00.974Z,6.13
2024-01-28T18:37:22.068Z,5.93
2024-01-28T18:41:41.498Z,5.00
2024-01-28T18:46:01.493Z,6.55
2024-01-28T18:50:20.774Z,6.55
2024-01-28T18:54:40.548Z,7.03
2024-01-28T18:59:02.903Z,6.88
2024-01-28T19:03:23.874Z,7.32
2024-01-28T19:07:42.882Z,6.33
2024-01-28T19:12:08.549Z,7.55
2024-01-28T19:16:28.250Z,5.38
2024-01-28T19:20:48.400Z,4.60
2024-01-28T19:25:07.424Z,5.80
2024-01-28T19:29:26.471Z,6.50
2024-01-28T19:33:48.409Z,5.97
2024-01-28T19:38:07.028Z,8.60
2024-01-28T19:42:27.732Z,8.30
2024-01-28T19:46:50.615Z,8.55
2024-01-28T19:51:10.707Z,8.23
2024-01-28T19:55:28.239Z,7.25
2024-01-28T19:59:46.998Z,8.68
2024-01-28T20:04:06.339Z,6.72
2024-01-28T20:08:25.524Z,4.77
2024-01-28T20:12:43.590Z,3.85
2024-01-28T20:17:01.511Z,5.10
2024-01-28T20:21:20.974Z,5.30
2024-01-28T20:25:56.087Z,2.88
2024-01-28T20:30:14.628Z,6.95
2024-01-28T20:34:32.413Z,6.80
2024-01-28T20:38:54.351Z,4.82
2024-01-28T20:43:14.985Z,4.10
2024-01-28T20:47:32.594Z,5.78
2024-01-28T20:51:50.638Z,8.50
2024-01-28T20:56:11.822Z,7.53
2024-01-28T21:00:29.877Z,6.15
2024-01-28T21:04:47.907Z,5.00
2024-01-28T21:09:05.967Z,4.70
2024-01-28T21:13:27.568Z,3.75
2024-01-28T21:17:45.173Z,8.07
2024-01-28T21:22:03.526Z,6.00
2024-01-28T21:26:21.641Z,4.15
2024-01-28T21:30:44.723Z,5.15
2024-01-28T21:35:04.165Z,3.80
2024-01-28T21:39:21.796Z,4.13
2024-01-28T21:43:41.942Z,3.53
2024-01-28T21:48:02.690Z,4.93
2024-01-28T21:52:22.946Z,3.55
2024-01-28T21:56:39.827Z,3.50
2024-01-28T22:00:58.349Z,2.63
2024-01-28T22:05:18.570Z,3.40
2024-01-28T22:09:37.119Z,3.80
2024-01-28T22:13:55.240Z,4.15
2024-01-28T22:18:13.637Z,2.50
2024-01-28T22:22:35.283Z,4.97
2024-01-28T22:26:55.927Z,3.20
2024-01-28T22:31:13.669Z,4.50
2024-01-28T22:35:33.989Z,5.47
2024-01-28T22:39:54.488Z,4.45
2024-01-28T22:44:14.081Z,4.43
2024-01-28T22:48:34.227Z,2.58
2024-01-28T22:52:56.031Z,4.50
2024-01-28T22:57:18.229Z,4.95
2024-01-28T23:01:36.223Z,2.90
2024-01-28T23:05:53.796Z,3.17
2024-01-28T23:10:13.971Z,2.75
2024-01-28T23:14:34.210Z,2.50
2024-01-28T23:18:56.438Z,3.30
2024-01-28T23:23:17.384Z,3.08
2024-01-28T23:27:38.497Z,2.97
2024-01-28T23:32:01.043Z,3.20
2024-01-28T23:36:18.328Z,3.13
2024-01-28T23:40:37.533Z,3.55
2024-01-28T23:44:57.679Z,3.17
2024-01-28T23:49:17.298Z,3.60
2024-01-28T23:53:38.726Z,2.50
2024-01-28T23:58:00.634Z,2.63
